Time;durP1;ratioP1;P1;durP2;ratioP2;P2;SDS_P1;SDS_P2;PMS_P1;PMS_P2;Temp;Humidity;BMP_temperature;BMP_pressure;BME280_temperature;BME280_humidity;BME280_pressure;Samples;Min_cycle;Max_cycle;Signal;HPM_P1;HPM_P2
2021/01/10 00:00:38;;;;;;;11.23;6.20;;;16.10;58.20;;;;;;4954011;28;20069;-63
2021/01/10 00:03:04;;;;;;;10.38;6.57;;;16.20;58.30;;;;;;4953617;28;20022;-61
2021/01/10 00:05:34;;;;;;;10.82;5.80;;;16.10;58.20;;;;;;4972118;28;20019;-61
2021/01/10 00:07:59;;;;;;;9.80;5.90;;;16.10;58.10;;;;;;4954411;28;20027;-61
2021/01/10 00:10:27;;;;;;;11.20;6.18;;;16.10;58.10;;;;;;4970454;28;20022;-62
2021/01/10 00:13:05;;;;;;;11.75;5.97;;;16.10;58.10;;;;;;4987913;28;20035;-62
2021/01/10 00:15:31;;;;;;;11.88;6.50;;;16.10;58.10;;;;;;4974945;28;20076;-61
2021/01/10 00:17:57;;;;;;;12.98;6.68;;;16.10;58.10;;;;;;4990998;28;20108;-61
2021/01/10 00:20:23;;;;;;;11.90;6.40;;;16.00;58.10;;;;;;4990890;28;20081;-62
2021/01/10 00:22:55;;;;;;;11.15;6.30;;;16.00;58.20;;;;;;4957415;28;20023;-63
2021/01/10 00:25:22;;;;;;;11.98;6.30;;;16.10;58.10;;;;;;4965389;28;20485;-62
2021/01/10 00:27:48;;;;;;;11.55;6.35;;;16.10;58.10;;;;;;4952493;28;20034;-63
2021/01/10 00:30:17;;;;;;;11.43;6.25;;;16.10;58.10;;;;;;4970280;28;20122;-62
2021/01/10 00:32:47;;;;;;;10.98;6.38;;;16.10;58.00;;;;;;4968137;28;20034;-63
2021/01/10 00:35:12;;;;;;;11.00;6.05;;;16.10;58.00;;;;;;4971503;28;20034;-62
2021/01/10 00:37:38;;;;;;;9.48;6.13;;;16.00;58.00;;;;;;4952924;28;20085;-62
2021/01/10 00:40:04;;;;;;;13.45;6.10;;;16.00;58.00;;;;;;4955139;28;20101;-61
2021/01/10 00:42:30;;;;;;;10.57;5.88;;;16.00;57.90;;;;;;4970837;28;20035;-62
2021/01/10 00:44:55;;;;;;;11.13;6.18;;;16.00;57.90;;;;;;4972275;28;20404;-62
2021/01/10 00:47:23;;;;;;;14.05;6.85;;;15.90;57.90;;;;;;4971376;28;20077;-62
2021/01/10 00:49:48;;;;;;;10.38;6.18;;;15.90;58.00;;;;;;4971316;28;20042;-61
2021/01/10 00:52:14;;;;;;;11.57;6.35;;;16.00;58.00;;;;;;4970826;28;20026;-62
2021/01/10 00:54:39;;;;;;;9.90;6.40;;;15.90;57.90;;;;;;4956145;28;20068;-62
2021/01/10 00:57:06;;;;;;;10.93;6.47;;;15.90;58.00;;;;;;4977560;28;20034;-62
2021/01/10 00:59:31;;;;;;;11.65;6.53;;;16.00;58.00;;;;;;4972457;28;20121;-61
2021/01/10 01:01:57;;;;;;;12.23;6.53;;;15.90;57.90;;;;;;4989655;28;20156;-63
2021/01/10 01:04:23;;;;;;;11.15;6.13;;;15.90;58.10;;;;;;4958893;28;20027;-62
2021/01/10 01:06:50;;;;;;;9.95;5.85;;;15.90;58.00;;;;;;4953068;28;20034;-62
2021/01/10 01:09:15;;;;;;;9.77;6.05;;;15.90;57.90;;;;;;4953772;28;20392;-62
2021/01/10 01:11:41;;;;;;;11.52;5.78;;;15.90;58.00;;;;;;4969993;28;20034;-62
2021/01/10 01:14:09;;;;;;;8.77;6.03;;;15.90;58.00;;;;;;4970218;28;20373;-63
2021/01/10 01:16:39;;;;;;;10.25;6.18;;;15.90;58.00;;;;;;4971629;28;20037;-62
2021/01/10 01:19:08;;;;;;;11.25;6.20;;;15.90;58.00;;;;;;4961656;28;20062;-62
2021/01/10 01:21:34;;;;;;;11.52;6.38;;;15.90;58.00;;;;;;4946357;28;20125;-63
2021/01/10 01:23:59;;;;;;;9.88;6.30;;;15.90;58.10;;;;;;4951822;29;20059;-62
2021/01/10 01:26:25;;;;;;;11.07;6.40;;;15.90;58.00;;;;;;4951386;29;20034;-61
2021/01/10 01:28:51;;;;;;;9.93;6.05;;;15.90;58.00;;;;;;4934793;29;20030;-63
2021/01/10 01:31:20;;;;;;;10.80;6.75;;;15.80;58.00;;;;;;4951004;29;20400;-62
2021/01/10 01:33:46;;;;;;;10.00;5.90;;;15.90;58.00;;;;;;4964987;28;20019;-62
2021/01/10 01:36:18;;;;;;;9.38;6.03;;;15.90;58.50;;;;;;4943900;28;20027;-61
2021/01/10 01:38:45;;;;;;;10.68;6.05;;;15.80;57.90;;;;;;4952125;28;20038;-62
2021/01/10 01:41:11;;;;;;;11.55;6.65;;;15.80;57.90;;;;;;4970409;28;20023;-63
2021/01/10 01:43:38;;;;;;;10.20;5.95;;;15.80;57.90;;;;;;4952067;28;20452;-62
2021/01/10 01:46:05;;;;;;;11.13;6.25;;;15.80;58.00;;;;;;4954180;28;20141;-62
2021/01/10 01:48:31;;;;;;;9.93;6.30;;;15.80;58.10;;;;;;4971771;28;20407;-61
2021/01/10 01:50:58;;;;;;;10.85;6.25;;;15.70;58.10;;;;;;4953855;28;20030;-62
2021/01/10 01:53:25;;;;;;;10.25;6.05;;;15.70;58.20;;;;;;4955719;28;20454;-62
2021/01/10 01:55:56;;;;;;;10.38;6.05;;;15.70;58.30;;;;;;4976397;28;20030;-63
2021/01/10 01:58:22;;;;;;;10.10;6.35;;;15.70;58.30;;;;;;4959413;28;20122;-62
2021/01/10 02:00:49;;;;;;;11.10;6.15;;;15.70;58.20;;;;;;4977336;28;20113;-62
2021/01/10 02:03:31;;;;;;;10.05;6.28;;;15.70;58.20;;;;;;4959086;28;20042;-63
2021/01/10 02:05:59;;;;;;;12.85;7.07;;;15.70;58.00;;;;;;4958732;28;20034;-62
2021/01/10 02:08:30;;;;;;;10.65;6.65;;;15.70;58.30;;;;;;4974171;28;20505;-63
2021/01/10 02:10:59;;;;;;;11.38;6.30;;;15.70;58.30;;;;;;4971545;28;20113;-62
2021/01/10 02:13:27;;;;;;;9.80;6.30;;;15.70;58.40;;;;;;4973819;28;20030;-62
2021/01/10 02:15:53;;;;;;;11.00;6.00;;;15.60;58.40;;;;;;4956471;28;20034;-62
2021/01/10 02:18:20;;;;;;;10.65;6.28;;;15.60;58.30;;;;;;4946888;29;20041;-64
2021/01/10 02:20:47;;;;;;;10.90;6.28;;;15.60;58.30;;;;;;4937559;29;20027;-62
2021/01/10 02:23:28;;;;;;;11.35;7.00;;;15.70;58.30;;;;;;4936256;29;20027;-63
2021/01/10 02:25:56;;;;;;;10.85;6.28;;;15.60;58.40;;;;;;4937121;29;20028;-62
2021/01/10 02:28:24;;;;;;;11.30;5.90;;;15.60;58.40;;;;;;4958360;28;20050;-62
2021/01/10 02:30:52;;;;;;;9.52;6.10;;;15.60;58.40;;;;;;4956033;28;20026;-62
2021/01/10 02:33:26;;;;;;;8.63;5.53;;;15.60;58.50;;;;;;4952815;28;20081;-62
2021/01/10 02:35:53;;;;;;;10.13;6.25;;;15.60;58.40;;;;;;4955552;28;20031;-62
2021/01/10 02:38:29;;;;;;;10.18;6.30;;;15.60;58.40;;;;;;4955898;28;20699;-62
2021/01/10 02:41:11;;;;;;;10.55;5.95;;;15.60;58.50;;;;;;4955002;28;20023;-62
2021/01/10 02:43:38;;;;;;;10.63;6.10;;;15.60;58.50;;;;;;4953850;28;20026;-62
2021/01/10 02:46:06;;;;;;;12.10;6.22;;;15.60;58.50;;;;;;4943448;28;21433;-62
2021/01/10 02:48:32;;;;;;;9.43;6.13;;;15.60;59.10;;;;;;4956087;28;20034;-64
2021/01/10 02:50:58;;;;;;;10.68;6.47;;;15.50;58.50;;;;;;4954906;28;20105;-62
2021/01/10 02:53:24;;;;;;;10.95;5.95;;;15.50;58.60;;;;;;4957114;28;20114;-62
2021/01/10 02:55:49;;;;;;;10.27;6.38;;;15.50;58.50;;;;;;4956528;28;20038;-62
2021/01/10 02:58:18;;;;;;;12.68;6.53;;;15.50;58.60;;;;;;4956207;28;20030;-62
2021/01/10 03:00:45;;;;;;;9.95;6.10;;;15.50;58.60;;;;;;4942449;29;20054;-61
2021/01/10 03:03:11;;;;;;;10.02;6.13;;;15.60;58.70;;;;;;4945416;28;20023;-62
2021/01/10 03:05:37;;;;;;;11.20;5.82;;;15.50;58.50;;;;;;4955814;28;20085;-62
2021/01/10 03:08:04;;;;;;;10.35;6.25;;;15.50;58.50;;;;;;4955569;28;20033;-62
2021/01/10 03:10:30;;;;;;;10.73;6.32;;;15.50;58.50;;;;;;4959641;28;20022;-62
2021/01/10 03:12:55;;;;;;;10.02;6.07;;;15.50;58.60;;;;;;4960508;28;20397;-62
2021/01/10 03:15:22;;;;;;;11.50;6.80;;;15.50;58.60;;;;;;4936281;29;20035;-62
2021/01/10 03:17:50;;;;;;;10.55;6.30;;;15.50;58.50;;;;;;4935866;29;20065;-61
2021/01/10 03:20:20;;;;;;;10.27;5.90;;;15.50;58.50;;;;;;4936246;29;20038;-62
2021/01/10 03:22:48;;;;;;;9.95;5.97;;;15.40;58.50;;;;;;4935030;29;20485;-61
2021/01/10 03:25:16;;;;;;;11.30;6.90;;;15.50;58.60;;;;;;4933415;28;20024;-61
2021/01/10 03:27:42;;;;;;;11.90;6.80;;;15.50;58.50;;;;;;4954732;28;20507;-61
2021/01/10 03:30:11;;;;;;;10.02;5.78;;;15.50;58.50;;;;;;4972466;28;20026;-62
2021/01/10 03:32:37;;;;;;;9.82;5.85;;;15.40;59.00;;;;;;4953610;28;20114;-62
2021/01/10 03:35:06;;;;;;;11.27;6.18;;;15.40;58.50;;;;;;4954998;28;20110;-62
2021/01/10 03:37:32;;;;;;;11.25;5.82;;;15.50;58.50;;;;;;4953700;28;20058;-63
2021/01/10 03:39:58;;;;;;;9.93;6.05;;;15.50;58.40;;;;;;4971963;28;20506;-63
2021/01/10 03:42:23;;;;;;;9.88;5.90;;;15.40;59.00;;;;;;4970510;28;20101;-61
2021/01/10 03:44:49;;;;;;;10.55;6.05;;;15.40;58.50;;;;;;4971576;28;20069;-63
2021/01/10 03:47:14;;;;;;;9.88;5.68;;;15.40;58.40;;;;;;4970293;28;20031;-63
2021/01/10 03:49:40;;;;;;;9.73;5.88;;;15.40;58.50;;;;;;4954512;28;20514;-62
2021/01/10 03:52:06;;;;;;;10.70;6.40;;;15.40;58.50;;;;;;4963409;28;20023;-63
2021/01/10 03:54:31;;;;;;;10.32;6.32;;;15.40;58.50;;;;;;4965793;28;20027;-62
2021/01/10 03:56:57;;;;;;;10.45;6.28;;;15.30;58.40;;;;;;4970517;28;20042;-61
2021/01/10 03:59:22;;;;;;;11.55;6.00;;;15.40;58.40;;;;;;4954529;28;20125;-62
2021/01/10 04:01:48;;;;;;;9.65;5.65;;;15.40;58.50;;;;;;4953728;28;20038;-62
2021/01/10 04:04:13;;;;;;;9.82;6.07;;;15.40;58.50;;;;;;4954634;28;20070;-61
2021/01/10 04:06:39;;;;;;;10.80;6.40;;;15.40;58.40;;;;;;4949172;28;20027;-62
2021/01/10 04:09:05;;;;;;;10.55;6.65;;;15.40;58.40;;;;;;4948974;28;20667;-62
2021/01/10 04:11:30;;;;;;;11.20;6.53;;;15.30;58.40;;;;;;4949495;28;20045;-62
2021/01/10 04:13:56;;;;;;;10.15;6.32;;;15.30;58.50;;;;;;4960494;28;20118;-62
2021/01/10 04:16:21;;;;;;;10.55;6.20;;;15.30;58.50;;;;;;4943211;28;20031;-62
2021/01/10 04:18:47;;;;;;;10.70;6.57;;;15.30;58.50;;;;;;4954024;28;20130;-62
2021/01/10 04:21:12;;;;;;;10.48;6.30;;;15.30;58.50;;;;;;4971066;28;20042;-63
2021/01/10 04:23:38;;;;;;;10.50;6.30;;;15.20;58.70;;;;;;4971538;28;20027;-62
2021/01/10 04:29:26;;;;;;;10.05;6.18;;;15.20;58.50;;;;;;4953816;28;20038;-63
2021/01/10 04:31:54;;;;;;;9.10;5.65;;;15.20;58.90;;;;;;4967723;28;20026;-63
2021/01/10 04:34:20;;;;;;;8.07;5.63;;;15.20;58.90;;;;;;4954846;28;20022;-63
2021/01/10 04:36:46;;;;;;;10.95;5.97;;;15.20;58.80;;;;;;4955210;28;20094;-63
2021/01/10 04:39:11;;;;;;;9.50;6.18;;;15.10;58.90;;;;;;4963666;28;20113;-63
2021/01/10 04:41:38;;;;;;;9.63;6.15;;;15.10;58.80;;;;;;4963132;28;20062;-63
2021/01/10 04:44:04;;;;;;;9.73;6.00;;;15.20;58.80;;;;;;4971427;28;20062;-63
2021/01/10 04:46:30;;;;;;;9.63;6.25;;;15.10;58.70;;;;;;4972340;28;20031;-62
2021/01/10 04:48:56;;;;;;;9.07;5.78;;;15.10;59.10;;;;;;4972386;28;20041;-62
2021/01/10 04:51:25;;;;;;;9.60;5.90;;;15.20;58.60;;;;;;4972069;28;20475;-62
2021/01/10 04:53:54;;;;;;;9.02;5.80;;;15.20;58.50;;;;;;4959013;28;20027;-62
2021/01/10 04:56:25;;;;;;;9.50;5.30;;;15.20;58.30;;;;;;4954577;28;20554;-62
2021/01/10 04:58:52;;;;;;;10.20;5.82;;;15.20;58.50;;;;;;4972417;28;20035;-62
2021/01/10 05:01:24;;;;;;;8.85;5.57;;;15.20;58.40;;;;;;4971666;28;20046;-62
2021/01/10 05:03:54;;;;;;;9.20;5.43;;;15.20;58.20;;;;;;4972279;28;20023;-62
2021/01/10 05:06:20;;;;;;;9.20;5.70;;;15.20;58.20;;;;;;4955427;28;20093;-63
2021/01/10 05:08:46;;;;;;;10.05;5.68;;;15.20;58.00;;;;;;4965475;28;20034;-62
2021/01/10 05:11:12;;;;;;;9.32;5.70;;;15.20;58.00;;;;;;4949253;28;20026;-61
2021/01/10 05:13:38;;;;;;;9.20;5.47;;;15.20;58.10;;;;;;4943175;28;20023;-61
2021/01/10 05:16:05;;;;;;;8.57;5.68;;;15.20;57.80;;;;;;4955525;28;20030;-62
2021/01/10 05:18:31;;;;;;;8.50;5.13;;;15.30;57.80;;;;;;4972180;28;20027;-62
2021/01/10 05:20:57;;;;;;;8.57;5.72;;;15.20;57.80;;;;;;4969126;28;20511;-62
2021/01/10 05:23:26;;;;;;;8.73;5.82;;;15.20;57.90;;;;;;4954858;28;20033;-63
2021/01/10 05:26:05;;;;;;;9.80;5.50;;;15.20;57.80;;;;;;4954901;28;20033;-62
2021/01/10 05:28:33;;;;;;;9.70;5.53;;;15.20;57.60;;;;;;4971559;28;20455;-63
2021/01/10 05:31:00;;;;;;;9.68;5.65;;;15.20;57.70;;;;;;4971366;28;20041;-62
2021/01/10 05:33:26;;;;;;;9.23;5.68;;;15.20;57.60;;;;;;4972201;28;20532;-61
2021/01/10 05:35:56;;;;;;;9.88;5.93;;;15.20;57.60;;;;;;4972068;28;20044;-64
2021/01/10 05:38:30;;;;;;;9.23;5.38;;;15.30;57.50;;;;;;4953420;28;20030;-63
2021/01/10 05:40:57;;;;;;;9.65;5.20;;;15.30;57.50;;;;;;4970550;28;20022;-61
2021/01/10 05:43:24;;;;;;;8.70;5.50;;;15.30;57.70;;;;;;4963384;28;20488;-61
2021/01/10 05:45:50;;;;;;;9.25;5.22;;;15.30;57.60;;;;;;4954182;28;20026;-62
2021/01/10 05:48:17;;;;;;;9.60;5.38;;;15.30;57.60;;;;;;4946982;28;20499;-63
2021/01/10 05:50:52;;;;;;;9.48;5.57;;;15.30;57.70;;;;;;4968786;28;20062;-62
2021/01/10 05:53:19;;;;;;;8.70;5.03;;;15.30;57.50;;;;;;4970536;28;20130;-62
2021/01/10 05:55:59;;;;;;;8.93;5.05;;;15.30;57.50;;;;;;4968669;28;20369;-62
2021/01/10 05:58:30;;;;;;;9.73;5.43;;;15.30;57.60;;;;;;4963350;28;20027;-61
2021/01/10 06:01:08;;;;;;;9.47;5.50;;;15.20;57.70;;;;;;4971145;28;20053;-61
2021/01/10 06:03:35;;;;;;;10.32;5.80;;;15.30;57.60;;;;;;4953679;28;20274;-61
2021/01/10 06:06:02;;;;;;;8.82;5.40;;;15.30;57.40;;;;;;4953924;28;20038;-63
2021/01/10 06:08:36;;;;;;;8.35;5.28;;;15.30;57.40;;;;;;4969847;28;20037;-63
2021/01/10 06:14:26;;;;;;;9.70;5.18;;;15.30;57.20;;;;;;4965349;28;20065;-62
2021/01/10 06:16:54;;;;;;;8.70;5.15;;;15.40;57.30;;;;;;4948777;28;20074;-62
2021/01/10 06:19:25;;;;;;;8.88;5.22;;;15.30;57.40;;;;;;4934879;29;20035;-61
2021/01/10 06:21:53;;;;;;;11.20;6.07;;;15.30;57.30;;;;;;4962787;28;20050;-65
2021/01/10 06:24:22;;;;;;;8.77;5.13;;;15.30;57.50;;;;;;4970842;28;20029;-64
2021/01/10 06:26:53;;;;;;;9.15;5.25;;;15.20;57.30;;;;;;4968593;28;20153;-63
2021/01/10 06:29:21;;;;;;;8.07;5.10;;;15.30;57.30;;;;;;4962214;28;20085;-65
2021/01/10 06:31:51;;;;;;;9.23;4.82;;;15.30;57.30;;;;;;4969107;28;20034;-62
2021/01/10 06:34:19;;;;;;;9.13;5.03;;;15.40;57.20;;;;;;4966200;28;20093;-64
2021/01/10 06:36:46;;;;;;;8.38;5.13;;;15.30;57.10;;;;;;4969032;28;20554;-62
2021/01/10 06:39:18;;;;;;;9.52;5.40;;;15.20;57.10;;;;;;4945577;28;20042;-63
2021/01/10 06:42:09;;;;;;;8.57;4.95;;;15.30;57.20;;;;;;4947706;28;20062;-62
2021/01/10 06:44:40;;;;;;;8.18;4.63;;;15.30;57.20;;;;;;4955491;28;20484;-63
2021/01/10 06:47:06;;;;;;;8.40;4.72;;;15.30;57.30;;;;;;4969874;28;20031;-62
2021/01/10 06:49:32;;;;;;;9.07;5.38;;;15.30;57.10;;;;;;4949691;28;20038;-64
2021/01/10 06:52:01;;;;;;;8.00;5.10;;;15.30;57.00;;;;;;4970196;28;20031;-65
2021/01/10 06:54:27;;;;;;;8.80;4.93;;;15.30;57.00;;;;;;4971553;28;20037;-63
2021/01/10 06:56:54;;;;;;;9.13;5.35;;;15.30;57.20;;;;;;4979660;28;20404;-62
2021/01/10 06:59:26;;;;;;;9.48;5.13;;;15.30;57.00;;;;;;4953440;28;20399;-62
2021/01/10 07:01:52;;;;;;;7.93;4.88;;;15.30;57.00;;;;;;4966897;28;20027;-62
2021/01/10 07:04:22;;;;;;;7.63;4.93;;;15.30;57.10;;;;;;4967129;28;20026;-63
2021/01/10 07:10:11;;;;;;;8.63;4.93;;;15.30;56.90;;;;;;4962696;28;20042;-65
2021/01/10 07:12:37;;;;;;;7.57;4.60;;;15.40;56.90;;;;;;4964730;28;20077;-61
2021/01/10 07:15:29;;;;;;;9.50;4.65;;;15.30;57.00;;;;;;4970436;28;20030;-62
2021/01/10 07:18:07;;;;;;;8.80;4.78;;;15.30;57.10;;;;;;4962673;28;20404;-62
2021/01/10 07:20:41;;;;;;;7.28;4.60;;;15.20;57.00;;;;;;4956860;28;20023;-63
2021/01/10 07:23:29;;;;;;;8.45;5.00;;;15.20;57.10;;;;;;4972900;28;20109;-63
2021/01/10 07:25:56;;;;;;;9.00;5.03;;;15.20;57.10;;;;;;4973695;28;20365;-63
2021/01/10 07:28:39;;;;;;;8.55;5.07;;;15.20;57.20;;;;;;4952174;28;20049;-64
2021/01/10 07:31:14;;;;;;;7.88;4.50;;;15.20;57.10;;;;;;4968389;28;20078;-62
2021/01/10 07:33:40;;;;;;;9.32;5.18;;;15.20;57.20;;;;;;4955684;28;20023;-63
2021/01/10 07:36:06;;;;;;;10.10;4.72;;;15.20;57.30;;;;;;4970767;28;20042;-64
2021/01/10 07:38:33;;;;;;;8.10;4.80;;;15.10;57.20;;;;;;4948766;28;20034;-63
2021/01/10 07:41:20;;;;;;;9.20;5.15;;;15.10;57.20;;;;;;4971968;28;20031;-62
2021/01/10 07:43:55;;;;;;;12.23;6.78;;;15.10;57.30;;;;;;4971101;28;20114;-63
2021/01/10 07:46:51;;;;;;;14.48;8.20;;;15.10;57.80;;;;;;4955685;28;20030;-63
2021/01/10 07:49:19;;;;;;;10.23;6.00;;;15.10;58.10;;;;;;4947134;28;20049;-64
2021/01/10 07:51:45;;;;;;;8.98;5.53;;;15.10;58.30;;;;;;4946681;28;20125;-63
2021/01/10 07:54:11;;;;;;;9.73;5.15;;;15.20;58.30;;;;;;4950480;28;20023;-63
2021/01/10 07:56:36;;;;;;;14.65;5.32;;;15.30;58.40;;;;;;4947851;28;20858;-62
2021/01/10 07:59:16;;;;;;;9.70;5.55;;;15.40;57.80;;;;;;4970776;28;20026;-63
2021/01/10 08:01:48;;;;;;;8.35;5.15;;;15.40;57.70;;;;;;4946672;28;20038;-64
2021/01/10 08:04:34;;;;;;;7.53;4.38;;;15.50;57.60;;;;;;4956021;28;20019;-64
2021/01/10 08:07:03;;;;;;;9.57;5.10;;;15.50;57.60;;;;;;4970634;28;20037;-64
2021/01/10 08:09:33;;;;;;;8.70;4.72;;;15.50;57.90;;;;;;4947339;28;20026;-65
2021/01/10 08:11:59;;;;;;;12.48;5.03;;;15.50;57.90;;;;;;4949979;28;20496;-64
2021/01/10 08:14:25;;;;;;;8.82;4.97;;;15.50;58.00;;;;;;4945494;28;20440;-63
2021/01/10 08:16:51;;;;;;;10.75;5.15;;;15.50;58.20;;;;;;4965815;28;20028;-63
2021/01/10 08:19:17;;;;;;;8.63;4.68;;;15.50;58.10;;;;;;4936772;28;20392;-63
2021/01/10 08:21:43;;;;;;;9.07;4.47;;;15.50;58.20;;;;;;4943686;28;20023;-65
2021/01/10 08:24:09;;;;;;;10.40;5.10;;;15.50;58.10;;;;;;4969847;28;20030;-63
2021/01/10 08:26:41;;;;;;;8.23;4.60;;;15.60;58.20;;;;;;4968422;28;20035;-61
2021/01/10 08:29:07;;;;;;;8.52;4.40;;;15.50;58.20;;;;;;4968556;28;20511;-64
2021/01/10 08:31:34;;;;;;;9.10;5.15;;;15.50;58.40;;;;;;4941412;28;20035;-63
2021/01/10 08:34:01;;;;;;;9.15;5.10;;;15.50;58.40;;;;;;4966880;28;20031;-63
2021/01/10 08:36:27;;;;;;;9.10;5.03;;;15.60;58.40;;;;;;4964154;28;20031;-62
2021/01/10 08:38:53;;;;;;;7.88;4.75;;;15.50;58.40;;;;;;4964117;28;20031;-65
2021/01/10 08:41:28;;;;;;;143.43;111.70;;;15.60;58.80;;;;;;4969140;28;20038;-63
2021/01/10 08:44:05;;;;;;;123.88;98.20;;;15.60;58.60;;;;;;4952842;28;20034;-63
2021/01/10 08:46:32;;;;;;;42.60;32.83;;;15.60;58.90;;;;;;4936816;29;20401;-62
2021/01/10 08:48:59;;;;;;;35.35;23.60;;;15.60;58.80;;;;;;4936236;29;20512;-63
2021/01/10 08:51:35;;;;;;;39.92;22.98;;;15.70;58.70;;;;;;4953701;28;20026;-63
2021/01/10 08:54:12;;;;;;;34.40;24.27;;;15.80;58.90;;;;;;4936345;29;20027;-65
2021/01/10 08:56:39;;;;;;;31.67;24.35;;;15.80;59.00;;;;;;4957525;28;20022;-62
2021/01/10 08:59:08;;;;;;;27.65;19.58;;;15.70;58.80;;;;;;4969444;28;20058;-62
2021/01/10 09:01:34;;;;;;;29.60;17.38;;;15.80;58.90;;;;;;4976114;28;20049;-63
2021/01/10 09:04:10;;;;;;;30.05;16.08;;;15.80;59.00;;;;;;4955053;28;20034;-61
2021/01/10 09:06:57;;;;;;;36.80;16.30;;;15.80;58.90;;;;;;4952666;28;20027;-63
2021/01/10 09:09:41;;;;;;;25.20;14.52;;;15.70;58.90;;;;;;4969978;28;20130;-61
2021/01/10 09:12:22;;;;;;;21.52;13.88;;;15.70;58.90;;;;;;4939861;28;20038;-61
2021/01/10 09:15:04;;;;;;;21.63;13.48;;;15.70;59.10;;;;;;4969607;28;20038;-62
2021/01/10 09:17:46;;;;;;;17.90;13.40;;;15.70;59.00;;;;;;4953973;28;20057;-63
2021/01/10 09:20:13;;;;;;;;;;;15.80;59.10;;;;;;4945015;29;20027;-62
2021/01/10 09:22:39;;;;;;;17.25;11.68;;;15.70;59.00;;;;;;4942195;28;20272;-62
2021/01/10 09:25:13;;;;;;;16.45;11.60;;;15.80;59.10;;;;;;4970454;28;20418;-64
2021/01/10 09:27:39;;;;;;;17.45;11.25;;;15.80;59.10;;;;;;4954056;28;20026;-63
2021/01/10 09:30:06;;;;;;;16.05;11.88;;;15.80;59.00;;;;;;4961730;28;20092;-62
2021/01/10 09:32:32;;;;;;;18.77;11.02;;;15.80;59.10;;;;;;4969854;28;20058;-64
2021/01/10 09:34:59;;;;;;;16.17;10.98;;;15.80;59.00;;;;;;4953046;28;20411;-63
2021/01/10 09:37:29;;;;;;;18.73;10.75;;;15.80;59.10;;;;;;4969788;28;20122;-62
2021/01/10 09:40:06;;;;;;;15.48;10.40;;;15.80;59.10;;;;;;4951896;28;20043;-63
2021/01/10 09:42:41;;;;;;;19.17;13.38;;;15.90;59.10;;;;;;4967518;28;20518;-63
2021/01/10 09:45:07;;;;;;;30.17;24.73;;;15.80;59.10;;;;;;4953268;28;20039;-62
2021/01/10 09:47:40;;;;;;;22.65;18.05;;;15.80;59.10;;;;;;4970026;28;20027;-62
2021/01/10 09:50:24;;;;;;;20.33;13.77;;;15.80;59.00;;;;;;4970851;28;20058;-62
2021/01/10 09:52:51;;;;;;;21.08;13.40;;;15.80;59.10;;;;;;4944280;28;20038;-63
2021/01/10 09:55:27;;;;;;;18.20;12.30;;;15.80;59.10;;;;;;4970777;28;20051;-62
2021/01/10 09:57:56;;;;;;;17.05;12.15;;;15.80;59.00;;;;;;4950462;28;20026;-63
2021/01/10 10:00:22;;;;;;;14.98;10.80;;;15.90;58.90;;;;;;4960844;28;20019;-62
2021/01/10 10:02:48;;;;;;;16.23;10.27;;;15.90;58.90;;;;;;4964218;28;20023;-63
2021/01/10 10:05:19;;;;;;;14.98;9.68;;;16.00;58.90;;;;;;4953567;28;20159;-63
2021/01/10 10:07:47;;;;;;;13.77;9.60;;;16.00;58.80;;;;;;4960199;28;20034;-65
2021/01/10 10:10:19;;;;;;;14.63;9.50;;;16.00;58.70;;;;;;4962297;28;20023;-64
2021/01/10 10:12:58;;;;;;;14.02;9.82;;;16.10;58.70;;;;;;4947475;28;20057;-62
2021/01/10 10:15:54;;;;;;;16.35;9.23;;;16.10;58.70;;;;;;4969522;28;20019;-64
2021/01/10 10:18:31;;;;;;;18.73;8.77;;;16.10;58.60;;;;;;4933647;29;20086;-63
2021/01/10 10:20:59;;;;;;;13.57;8.38;;;16.10;58.40;;;;;;4963422;28;20035;-61
2021/01/10 10:23:25;;;;;;;14.95;9.10;;;16.20;58.50;;;;;;4962506;28;20023;-62
2021/01/10 10:25:51;;;;;;;15.15;9.02;;;16.20;58.40;;;;;;4950624;28;20081;-62
2021/01/10 10:28:20;;;;;;;14.57;9.32;;;16.20;58.50;;;;;;4965464;28;20027;-64
2021/01/10 10:30:46;;;;;;;13.07;8.75;;;16.20;58.60;;;;;;4959795;28;20035;-61
2021/01/10 10:33:12;;;;;;;13.02;7.82;;;16.30;58.40;;;;;;4961981;28;20078;-64
2021/01/10 10:35:39;;;;;;;15.05;7.68;;;16.30;58.00;;;;;;4966272;28;20542;-61
2021/01/10 10:38:05;;;;;;;10.95;7.38;;;16.40;57.80;;;;;;4968613;28;20026;-63
2021/01/10 10:40:30;;;;;;;11.77;7.43;;;16.50;57.60;;;;;;4979426;28;20381;-63
2021/01/10 10:42:56;;;;;;;12.52;6.80;;;16.50;57.60;;;;;;4961953;28;20026;-64
2021/01/10 10:45:22;;;;;;;10.90;7.00;;;16.50;57.60;;;;;;4971174;28;20484;-63
2021/01/10 10:47:47;;;;;;;10.40;6.93;;;16.50;57.50;;;;;;4973546;28;20046;-63
2021/01/10 10:50:13;;;;;;;13.05;6.38;;;16.50;57.40;;;;;;4953663;28;20023;-62
2021/01/10 10:52:41;;;;;;;16.40;7.45;;;16.60;57.80;;;;;;4971919;28;20034;-63
2021/01/10 10:55:07;;;;;;;16.75;7.20;;;16.60;57.60;;;;;;4963228;28;20027;-63
2021/01/10 10:57:33;;;;;;;21.90;7.45;;;16.60;56.20;;;;;;4956288;28;20130;-64
2021/01/10 10:59:58;;;;;;;15.38;6.70;;;16.60;57.00;;;;;;4940929;28;20522;-63
2021/01/10 11:02:24;;;;;;;15.88;6.00;;;16.70;57.50;;;;;;4977015;28;20095;-64
2021/01/10 11:04:49;;;;;;;16.08;6.05;;;16.70;57.40;;;;;;4967295;28;20050;-64
2021/01/10 11:07:16;;;;;;;13.95;6.60;;;16.70;57.60;;;;;;4953365;28;20022;-64
2021/01/10 11:09:43;;;;;;;29.10;7.60;;;16.70;57.40;;;;;;4976511;28;20030;-63
2021/01/10 11:12:10;;;;;;;16.95;7.43;;;16.70;57.70;;;;;;4949359;28;20019;-63
2021/01/10 11:14:36;;;;;;;16.17;7.93;;;16.70;57.90;;;;;;4961428;28;20357;-64
2021/01/10 11:17:09;;;;;;;14.88;7.95;;;16.70;58.20;;;;;;4971603;28;20089;-62
2021/01/10 11:19:35;;;;;;;34.63;8.48;;;16.80;58.30;;;;;;4944616;28;20030;-63
2021/01/10 11:22:03;;;;;;;13.00;7.68;;;16.90;59.70;;;;;;4971987;28;20038;-64
2021/01/10 11:24:29;;;;;;;16.38;7.85;;;16.80;59.30;;;;;;4974354;28;20015;-63
2021/01/10 11:26:55;;;;;;;15.18;7.25;;;16.80;59.40;;;;;;4968241;28;20102;-63
2021/01/10 11:29:21;;;;;;;12.77;7.63;;;16.80;59.40;;;;;;4972796;28;20034;-64
2021/01/10 11:31:47;;;;;;;12.88;7.03;;;16.80;59.90;;;;;;4981791;28;20026;-62
2021/01/10 11:34:13;;;;;;;13.90;7.78;;;16.70;59.40;;;;;;4973096;28;20105;-65
2021/01/10 11:36:44;;;;;;;16.15;6.82;;;16.70;59.80;;;;;;4955879;28;20027;-63
2021/01/10 11:42:32;;;;;;;14.20;7.05;;;16.70;60.20;;;;;;4953388;28;20106;-62
2021/01/10 11:44:58;;;;;;;23.20;18.52;;;16.80;59.40;;;;;;4961508;28;20079;-63
2021/01/10 11:47:26;;;;;;;19.98;13.65;;;16.70;58.80;;;;;;4972204;28;20022;-64
2021/01/10 11:49:52;;;;;;;22.33;15.32;;;16.70;58.90;;;;;;4968620;28;20396;-63
2021/01/10 11:52:18;;;;;;;15.82;12.25;;;16.70;58.90;;;;;;4967549;28;20046;-65
2021/01/10 11:54:43;;;;;;;18.92;11.48;;;16.70;58.90;;;;;;4953747;28;20455;-63
2021/01/10 11:57:09;;;;;;;19.98;10.88;;;16.70;58.80;;;;;;4964905;28;20039;-61
2021/01/10 11:59:35;;;;;;;20.58;10.38;;;16.70;58.60;;;;;;4953757;28;20057;-63
2021/01/10 12:02:00;;;;;;;16.88;9.50;;;16.70;59.00;;;;;;4951253;28;20034;-62
2021/01/10 12:04:26;;;;;;;13.65;8.80;;;16.80;58.50;;;;;;4975819;28;20022;-64
2021/01/10 12:06:57;;;;;;;15.40;8.68;;;16.80;58.40;;;;;;4960760;28;20031;-64
2021/01/10 12:09:23;;;;;;;14.88;8.40;;;16.70;58.20;;;;;;4971554;28;20026;-64
2021/01/10 12:11:49;;;;;;;19.48;8.60;;;16.70;58.40;;;;;;4971563;28;20023;-64
2021/01/10 12:14:14;;;;;;;14.45;7.93;;;16.70;58.30;;;;;;4963388;28;20031;-62
2021/01/10 12:16:40;;;;;;;15.35;8.18;;;16.70;58.30;;;;;;4954916;28;20031;-63
2021/01/10 12:19:06;;;;;;;12.43;8.13;;;16.80;58.30;;;;;;4955119;28;20035;-64
2021/01/10 12:21:32;;;;;;;14.10;8.02;;;16.80;58.30;;;;;;4953795;28;20031;-63
2021/01/10 12:23:57;;;;;;;10.02;6.53;;;16.80;58.30;;;;;;4955718;28;20110;-63
2021/01/10 12:26:24;;;;;;;13.55;7.18;;;16.80;58.20;;;;;;4959608;28;20052;-63
2021/01/10 12:28:50;;;;;;;10.10;6.72;;;16.80;58.30;;;;;;4967482;28;20035;-63
2021/01/10 12:31:17;;;;;;;11.27;6.85;;;16.90;58.10;;;;;;4936957;29;20031;-64
2021/01/10 12:33:43;;;;;;;11.00;6.85;;;16.80;58.10;;;;;;4936550;29;20028;-63
2021/01/10 12:36:10;;;;;;;9.98;6.78;;;16.90;58.10;;;;;;4962852;28;20027;-62
2021/01/10 12:38:36;;;;;;;14.45;6.70;;;16.80;57.70;;;;;;4954847;28;20594;-64
2021/01/10 12:41:03;;;;;;;9.73;5.65;;;16.80;58.00;;;;;;4968714;28;20109;-63
2021/01/10 12:43:29;;;;;;;29.80;26.77;;;16.90;57.90;;;;;;4947914;28;20081;-63
2021/01/10 12:45:55;;;;;;;24.95;16.77;;;16.80;58.30;;;;;;4969373;28;20442;-64
2021/01/10 12:48:20;;;;;;;17.98;11.63;;;16.90;58.80;;;;;;4964023;28;20086;-63
2021/01/10 12:50:47;;;;;;;14.82;8.52;;;16.90;58.70;;;;;;4953808;28;20031;-62
2021/01/10 12:53:16;;;;;;;12.23;8.13;;;16.90;59.10;;;;;;4959731;28;20407;-64
2021/01/10 12:55:43;;;;;;;12.15;8.30;;;16.90;59.40;;;;;;4958543;28;20381;-63
2021/01/10 12:58:08;;;;;;;16.05;7.50;;;17.00;59.40;;;;;;4979573;28;20038;-63